»·PEaware :: WAT169 KSNA-KSAN

WAT169 :: KSNA-KSAN

FLIGHT INFORMATION

Flight Status: Arrived
Operator: Unknown
More flights by this operator :: More flights under this callsign
Pilot: Marty P. (27464)
Aircraft: BEECH AIRCRAFT BARON
(BE58)
More flights by this aircraft type
Origin: KSNA John Wayne-Orange Co
United States
Destination: KSAN San Diego Intl-Lindbergh
United States
More flights between these airports :: More routes between these airports
Route: V23 MZB
File this flight plan on PilotEdge
Remarks: CSTP31
Altitude:
(Current/Filed)
5,000ft
Speed:
(Current/Filed)
180kts
Departed: 24-Jul-20 08:23 PM
Arrived: 24-Jul-20 08:58 PM
Distance/Time
Traveled:
66nm/0:35
Distance/Time
To Go:
Arrived

Flight Plot

Page will automatically refresh every two minutes.


Map Options




Map Legend


Flown Route
Filed Route
Departure Airport
Arrival Airport
Navaid (VOR, NDB)
Fix

Horizontal Profiles

Position Reports

Time Latitude Longitude Heading Altitude Ground
Speed
24-Jul-20 20:05 33.667178 -117.872126 225 57ft 0kts
24-Jul-20 20:06 33.667178 -117.872126 225 57ft 0kts
24-Jul-20 20:07 33.667178 -117.872126 225 57ft 0kts
24-Jul-20 20:08 33.667178 -117.872126 225 57ft 0kts
24-Jul-20 20:09 33.667178 -117.872126 225 57ft 0kts
24-Jul-20 20:10 33.667178 -117.872126 225 57ft 0kts
24-Jul-20 20:11 33.667178 -117.872126 225 57ft 0kts
24-Jul-20 20:12 33.667178 -117.872126 225 57ft 0kts
24-Jul-20 20:13 33.667178 -117.872126 225 57ft 0kts
24-Jul-20 20:14 33.667178 -117.872126 225 57ft 0kts
24-Jul-20 20:15 33.667376 -117.872365 336 57ft 5kts
24-Jul-20 20:16 33.669362 -117.870673 40 57ft 12kts
24-Jul-20 20:17 33.671467 -117.868569 33 57ft 15kts
24-Jul-20 20:18 33.674980 -117.865922 27 57ft 13kts
24-Jul-20 20:19 33.678039 -117.863983 27 57ft 12kts
24-Jul-20 20:20 33.680540 -117.862827 313 57ft 6kts
24-Jul-20 20:21 33.680730 -117.863250 297 57ft 0kts
24-Jul-20 20:22 33.676854 -117.868063 207 57ft 100kts
24-Jul-20 20:23 33.645489 -117.879797 186 1411ft 127kts
24-Jul-20 20:24 33.609389 -117.883788 188 2507ft 151kts
24-Jul-20 20:25 33.571129 -117.869730 121 3314ft 152kts
24-Jul-20 20:26 33.545496 -117.832862 132 4562ft 140kts
24-Jul-20 20:27 33.517581 -117.794616 132 5010ft 173kts
24-Jul-20 20:28 33.484184 -117.748897 132 5004ft 193kts
24-Jul-20 20:29 33.446794 -117.697877 132 5002ft 208kts
24-Jul-20 20:30 33.408325 -117.645416 132 5001ft 210kts
24-Jul-20 20:31 33.369651 -117.592769 132 5001ft 211kts
24-Jul-20 20:32 33.330967 -117.540210 132 5000ft 211kts
24-Jul-20 20:33 33.292088 -117.487430 132 4983ft 211kts
24-Jul-20 20:34 33.253204 -117.434729 132 4983ft 211kts
24-Jul-20 20:35 33.203219 -117.401908 161 4976ft 208kts
24-Jul-20 20:36 33.148506 -117.378893 161 4973ft 208kts
24-Jul-20 20:37 33.093875 -117.355910 161 4973ft 208kts
24-Jul-20 20:38 33.039263 -117.332978 162 4973ft 208kts
24-Jul-20 20:39 32.984661 -117.310097 161 4974ft 209kts
24-Jul-20 20:40 32.929918 -117.287148 162 4971ft 202kts
24-Jul-20 20:41 32.880061 -117.266276 162 4968ft 172kts
24-Jul-20 20:42 32.839324 -117.246700 135 4972ft 152kts
24-Jul-20 20:43 32.822854 -117.201587 112 4979ft 147kts
24-Jul-20 20:44 32.808451 -117.156629 112 4980ft 144kts
24-Jul-20 20:45 32.794044 -117.111466 112 4993ft 157kts
24-Jul-20 20:46 32.776432 -117.056746 112 4985ft 189kts
24-Jul-20 20:47 32.757055 -116.996998 112 4978ft 195kts
24-Jul-20 20:48 32.737605 -116.936897 112 4853ft 201kts
24-Jul-20 20:49 32.701210 -116.899106 186 3951ft 152kts
24-Jul-20 20:50 32.675174 -116.922639 253 4005ft 151kts
24-Jul-20 20:51 32.681305 -116.975058 285 3727ft 162kts
24-Jul-20 20:52 32.691937 -117.018686 285 3012ft 118kts
24-Jul-20 20:53 32.701192 -117.056585 286 2462ft 129kts
24-Jul-20 20:54 32.711301 -117.098002 286 1808ft 112kts
24-Jul-20 20:55 32.719806 -117.132928 287 982ft 108kts
24-Jul-20 20:56 32.727745 -117.165678 287 372ft 93kts
24-Jul-20 20:57 32.733007 -117.188104 262 18ft 13kts
24-Jul-20 20:58 32.732501 -117.188614 229 18ft 0kts
24-Jul-20 20:59 32.732317 -117.190546 200 18ft 11kts
24-Jul-20 21:00 32.732272 -117.190921 97 18ft 0kts

Navigation Log

Ident Type
Flight plan parsing failed, navigation log unavailable